Petersham, Massachusetts
Current Conditions -  °F | °C
As of 12:19 AM on Thursday 23 Oct 2014 (Local Time) from KORE Reporting Station
Moderate Rain Moderate Rain  
Wind Chill: 42°   Ceiling: 2100
Heat Index: 47°   Visibility: 5mi
Dew Point: 45°   Wind: 12mph
Humidity: 93%   Direction: 350°N
Pressure: 29.86"   Gusts: NA
Location:  42.49°N, 72.19°W
Report Text: KORE 230419Z AUTO 35010KT 5SM RA BR SCT013 BKN021 OVC050 08/07 A2986 RMK AO2 P0021 T00830072
Loading
Personal Weather Stations






























Interactive Weather Map
Tropical Storm Tracking
New forecast layout! Learn more

10-Day Weather Forecast

Advertisements
Track Severe Weather on mobile